EGGW/LTN METAR and TAF weather

Enter ICAO airport designator
Station Type Date Time Source
EGGW METAR 2021/07/29 08:50 UTC NOAA

EGGW 290850Z AUTO 25016KT 9999 FEW027 16/10 Q1010


Station Type Date Time Source
EGGW Decoded METAR 2021/07/29 08:50 UTC NOAA

Luton Airport , United Kingdom (EGGW) 51-52N 000-22W
Jul 29, 2021 - 05:20 AM EDT / 2021.07.29 0920 UTC
Wind: from the WSW (250 degrees) at 20 MPH (17 KT):0
Visibility: greater than 7 mile(s):0
Temperature: 62 F (17 C)
Dew Point: 50 F (10 C)
Relative Humidity: 63%
Pressure (altimeter): 29.83 in. Hg (1010 hPa)
ob: EGGW 290920Z AUTO 25017KT 9999 NCD 17/10 Q1010
cycle: 9

Station Type Date Time Source
EGGW TAF 2021/07/29 06:09 UTC NOAA

TAF EGGW 290504Z 2906/3006 25012KT 9999 FEW035 PROB30
TEMPO 2910/2918 25015G25KT
BECMG 2920/2923 19008KT PROB30
TEMPO 2921/2924 8000 -SHRA
BECMG 2923/3002 13012KT
TEMPO 3000/3006 7000 RA BKN014 PROB30
TEMPO 3001/3006 3000 +SHRA BKN006

Example: see airport list